LTFM Airport Information

Runway Information
Airport Frequencies
Airport Navaids
Airport Weather Information & NOTAM
ADDS - METARS form results

(1919 UTC 18 July 2019)
Data provider http://aviationweather.gov/metar/data/
 
METAR text: LTFM 181850Z 07009KT CAVOK 24/16 Q1014 NOSIG RMK RWY17L 07008KT RWY34L 06008KT RWY16R 06008KT
Conditions at: LTFM (ISTANBUL HANALI , TR) observed 1850 UTC 18 July 2019
Temperature: 24.0°C (75°F)
Dewpoint: 16.0°C (61°F) [RH = 61%]
Pressure (altimeter): 29.94 inches Hg (1014.0 mb)
Winds: from the ENE (70 degrees) at 10 MPH (9 knots; 4.6 m/s)
Visibility: 6 or more miles (10+ km)
Ceiling: ceiling and visibility are OK
Clouds: unknown
Weather: no significant weather observed at this time

METAR text: LTFM 181820Z 07008KT CAVOK 24/15 Q1014 NOSIG RMK RWY17L 07008KT RWY34L 06008KT RWY16R 06009KT
Conditions at: LTFM (ISTANBUL HANALI , TR) observed 1820 UTC 18 July 2019
Temperature: 24.0°C (75°F)
Dewpoint: 15.0°C (59°F) [RH = 57%]
Pressure (altimeter): 29.94 inches Hg (1014.0 mb)
Winds: from the ENE (70 degrees) at 9 MPH (8 knots; 4.1 m/s)
Visibility: 6 or more miles (10+ km)
Ceiling: ceiling and visibility are OK
Clouds: unknown
Weather: no significant weather observed at this time

Forecast for: LTFM (ISTANBUL HANALI , TR)
Text: TAF LTFM 181640Z 1818/1924 VRB02KT CAVOK
Forecast period: 1800 UTC 18 July 2019 to 0400 UTC 19 July 2019
Forecast type: FROM: standard forecast or significant change
Winds: variable direction winds at 2 MPH (2 knots; 1.0 m/s)
Visibility: 6 or more miles 10+ km)
Ceiling: unknown
Clouds: missing
Weather: NSW  (no significant weather)
Text: BECMG 1904/1907 04015KT SCT028
Forecast period: 0400 to 1400 UTC 19 July 2019
Forecast type: BECOMING: Conditions expected to become as follows by 0700 UTC 19 July 2019
Winds: from the NE (40 degrees) at 17 MPH (15 knots; 7.7 m/s)
Visibility: 6 or more miles 10+ km)
Ceiling: at least 12,000 feet AGL
Clouds: scattered clouds at 2800 feet AGL
Weather: NSW  (no significant weather)
Text: BECMG 1914/1917 CAVOK
Forecast period: 1400 UTC 19 July 2019 to 0000 UTC 20 July 2019
Forecast type: BECOMING: Conditions expected to become as follows by 1700 UTC 19 July 2019
Winds: from the NE (40 degrees) at 17 MPH (15 knots; 7.7 m/s)
Visibility: 6 or more miles 10+ km)
Ceiling: unknown
Clouds: missing
Weather: NSW  (no significant weather)